createdAt,value
2023-05-14T00:01:02.878Z,27.58
2023-05-14T00:06:05.785Z,27.77
2023-05-14T00:11:09.146Z,32.85
2023-05-14T00:16:12.354Z,33.87
2023-05-14T00:21:14.970Z,25.73
2023-05-14T00:26:21.541Z,25.40
2023-05-14T00:31:24.382Z,26.02
2023-05-14T00:36:27.211Z,26.48
2023-05-14T00:41:31.232Z,30.65
2023-05-14T00:46:34.024Z,28.42
2023-05-14T00:51:36.746Z,33.25
2023-05-14T00:56:39.797Z,25.90
2023-05-14T01:01:42.769Z,27.02
2023-05-14T01:06:52.082Z,26.88
2023-05-14T01:12:36.723Z,31.17
2023-05-14T01:17:43.765Z,28.08
2023-05-14T01:22:46.405Z,26.98
2023-05-14T01:27:53.564Z,26.38
2023-05-14T01:33:00.673Z,29.25
2023-05-14T01:38:05.601Z,26.38
2023-05-14T01:43:08.800Z,29.42
2023-05-14T01:48:13.968Z,19.83
2023-05-14T01:53:16.570Z,30.55
2023-05-14T01:58:19.951Z,26.88
2023-05-14T02:03:22.710Z,25.55
2023-05-14T02:08:25.811Z,28.02
2023-05-14T02:13:28.307Z,23.92
2023-05-14T02:18:31.703Z,24.85
2023-05-14T02:23:41.564Z,22.63
2023-05-14T02:28:46.006Z,33.55
2023-05-14T02:33:49.146Z,19.60
2023-05-14T02:38:52.035Z,25.13
2023-05-14T02:43:54.997Z,29.25
2023-05-14T02:48:58.107Z,21.33
2023-05-14T02:54:00.898Z,19.25
2023-05-14T02:59:03.884Z,20.92
2023-05-14T03:04:09.512Z,27.42
2023-05-14T03:09:12.810Z,22.35
2023-05-14T03:14:16.472Z,15.95
2023-05-14T03:19:19.155Z,23.33
2023-05-14T03:24:24.344Z,22.38
2023-05-14T03:29:26.972Z,23.60
2023-05-14T03:34:30.484Z,25.75
2023-05-14T03:39:34.598Z,27.75
2023-05-14T03:44:40.769Z,24.05
2023-05-14T03:49:44.946Z,17.95
2023-05-14T03:54:49.629Z,25.70
2023-05-14T03:59:52.664Z,21.15
2023-05-14T04:04:56.355Z,29.17
2023-05-14T04:10:01.163Z,31.52
2023-05-14T04:15:08.130Z,25.85
2023-05-14T04:20:11.258Z,26.08
2023-05-14T04:25:13.846Z,24.50
2023-05-14T04:30:16.607Z,22.25
2023-05-14T04:35:22.680Z,22.90
2023-05-14T04:40:27.082Z,32.53
2023-05-14T04:45:30.860Z,27.42
2023-05-14T04:50:35.850Z,26.10
2023-05-14T04:55:38.606Z,32.00
2023-05-14T05:00:41.436Z,31.58
2023-05-14T05:05:44.128Z,29.95
2023-05-14T05:10:46.913Z,30.10
2023-05-14T05:15:49.580Z,31.27
2023-05-14T05:20:52.269Z,30.27
2023-05-14T05:25:56.229Z,39.28
2023-05-14T05:31:00.281Z,30.90
2023-05-14T05:36:02.973Z,31.20
2023-05-14T05:41:08.186Z,32.13
2023-05-14T05:46:10.763Z,29.60
2023-05-14T05:51:14.189Z,27.83
2023-05-14T05:56:16.826Z,29.27
2023-05-14T06:01:19.550Z,35.35
2023-05-14T06:06:22.151Z,22.70
2023-05-14T06:11:24.874Z,26.60
2023-05-14T06:16:27.744Z,31.58
2023-05-14T06:21:30.480Z,30.80
2023-05-14T06:26:33.081Z,31.08
2023-05-14T06:31:35.799Z,31.77
2023-05-14T06:36:38.650Z,22.95
2023-05-14T06:41:42.049Z,25.58
2023-05-14T06:46:50.450Z,26.58
2023-05-14T06:51:54.226Z,29.33
2023-05-14T06:56:57.479Z,26.75
2023-05-14T07:02:01.362Z,25.45
2023-05-14T07:07:04.359Z,26.65
2023-05-14T07:12:07.851Z,27.95
2023-05-14T07:17:12.038Z,30.67
2023-05-14T07:22:17.858Z,29.13
2023-05-14T07:27:20.627Z,24.05
2023-05-14T07:32:25.144Z,25.60
2023-05-14T07:37:28.312Z,25.95
2023-05-14T07:42:36.639Z,32.80
2023-05-14T07:47:40.940Z,24.75
2023-05-14T08:02:52.066Z,16.42
2023-05-14T08:07:55.110Z,20.67
2023-05-14T08:12:57.895Z,16.38
2023-05-14T08:18:06.329Z,21.52
2023-05-14T08:23:09.553Z,25.50
2023-05-14T08:28:30.746Z,13.90
2023-05-14T08:33:33.412Z,19.52
2023-05-14T08:38:42.638Z,24.80
2023-05-14T08:44:07.933Z,24.40
2023-05-14T08:49:46.282Z,25.33
2023-05-14T08:54:51.215Z,15.00
2023-05-14T08:59:54.308Z,16.15
2023-05-14T09:05:02.471Z,16.95
2023-05-14T09:10:05.895Z,22.67
2023-05-14T09:15:08.888Z,15.57
2023-05-14T09:20:13.349Z,25.83
2023-05-14T09:25:16.869Z,17.00
2023-05-14T09:30:19.490Z,20.48
2023-05-14T09:35:25.813Z,14.20
2023-05-14T09:40:28.811Z,14.82
2023-05-14T09:45:33.896Z,16.58
2023-05-14T09:50:45.431Z,13.65
2023-05-14T09:56:02.255Z,11.60
2023-05-14T10:01:05.067Z,17.33
2023-05-14T10:06:08.841Z,15.15
2023-05-14T10:11:30.143Z,13.93
2023-05-14T10:16:48.484Z,16.45
2023-05-14T10:22:05.953Z,14.55
2023-05-14T10:27:08.904Z,16.17
2023-05-14T10:37:18.223Z,15.25
2023-05-14T10:42:27.966Z,14.95
2023-05-14T10:47:36.875Z,15.35
2023-05-14T10:52:57.959Z,8.63
2023-05-14T11:03:05.945Z,13.57
2023-05-14T11:08:09.065Z,16.35
2023-05-14T11:13:12.135Z,15.85
2023-05-14T11:18:26.236Z,15.18
2023-05-14T11:23:29.275Z,14.20
2023-05-14T11:28:32.117Z,16.67
2023-05-14T11:33:36.118Z,21.73
2023-05-14T11:38:49.013Z,12.90
2023-05-14T11:43:51.894Z,8.85
2023-05-14T11:48:54.481Z,15.07
2023-05-14T11:53:58.948Z,21.67
2023-05-14T11:59:01.787Z,12.80
2023-05-14T12:04:05.286Z,14.70
2023-05-14T12:09:07.956Z,22.00
2023-05-14T12:14:15.538Z,16.17
2023-05-14T12:19:21.855Z,15.50
2023-05-14T12:24:25.956Z,21.42
2023-05-14T12:29:28.644Z,16.25
2023-05-14T12:34:31.219Z,19.80
2023-05-14T12:39:35.752Z,15.70
2023-05-14T12:44:38.605Z,14.27
2023-05-14T12:49:42.411Z,17.90
2023-05-14T12:54:45.201Z,15.50
2023-05-14T12:59:48.058Z,11.63
2023-05-14T13:04:50.868Z,13.85
2023-05-14T13:09:53.616Z,16.90
2023-05-14T13:14:56.151Z,12.45
2023-05-14T13:19:59.052Z,15.55
2023-05-14T13:25:01.928Z,17.13
2023-05-14T13:30:05.174Z,16.70
2023-05-14T13:35:08.107Z,17.90
2023-05-14T13:40:11.543Z,12.77
2023-05-14T13:45:14.240Z,15.32
2023-05-14T13:50:17.046Z,12.68
2023-05-14T13:55:20.856Z,18.27
2023-05-14T14:00:23.773Z,14.55
2023-05-14T14:10:31.287Z,14.50
2023-05-14T14:15:35.592Z,12.52
2023-05-14T14:20:38.754Z,14.38
2023-05-14T14:25:42.111Z,10.02
2023-05-14T14:30:45.120Z,12.77
2023-05-14T14:35:47.917Z,15.68
2023-05-14T14:40:50.753Z,23.23
2023-05-14T14:45:53.429Z,16.55
2023-05-14T14:50:56.249Z,14.50
2023-05-14T14:56:00.660Z,11.05
2023-05-14T15:01:03.544Z,10.88
2023-05-14T15:06:06.495Z,16.95
2023-05-14T15:11:09.298Z,11.98
2023-05-14T15:16:12.607Z,15.40
2023-05-14T15:21:15.323Z,15.20
2023-05-14T15:26:17.938Z,13.98
2023-05-14T15:31:20.746Z,13.07
2023-05-14T15:36:23.753Z,14.45
2023-05-14T15:41:28.769Z,11.73
2023-05-14T15:46:32.272Z,14.77
2023-05-14T15:51:35.197Z,11.00
2023-05-14T15:56:37.744Z,12.15
2023-05-14T16:01:40.815Z,11.68
2023-05-14T16:06:45.238Z,10.82
2023-05-14T16:11:48.041Z,13.70
2023-05-14T16:16:50.967Z,17.75
2023-05-14T16:26:56.685Z,14.07
2023-05-14T16:31:59.549Z,14.25
2023-05-14T16:37:02.287Z,18.90
2023-05-14T16:42:05.162Z,14.13
2023-05-14T16:47:07.705Z,21.55
2023-05-14T16:52:10.463Z,16.00
2023-05-14T16:57:15.920Z,17.63
2023-05-14T17:02:18.667Z,19.25
2023-05-14T17:07:21.332Z,16.50
2023-05-14T17:12:24.305Z,22.75
2023-05-14T17:17:26.993Z,26.02
2023-05-14T17:22:29.806Z,15.93
2023-05-14T17:27:33.443Z,22.10
2023-05-14T17:32:36.207Z,21.75
2023-05-14T17:37:39.165Z,21.02
2023-05-14T17:42:41.905Z,18.17
2023-05-14T17:47:44.543Z,19.60
2023-05-14T17:52:47.657Z,24.93
2023-05-14T17:57:53.424Z,23.85
2023-05-14T18:02:56.330Z,24.40
2023-05-14T18:07:59.167Z,22.43
2023-05-14T18:13:01.838Z,17.42
2023-05-14T18:18:04.998Z,14.37
2023-05-14T18:23:10.330Z,18.97
2023-05-14T18:28:13.081Z,11.90
2023-05-14T18:33:15.808Z,16.85
2023-05-14T18:38:20.939Z,19.42
2023-05-14T18:43:23.799Z,19.15
2023-05-14T18:48:26.520Z,19.05
2023-05-14T18:53:29.472Z,13.77
2023-05-14T18:58:32.519Z,14.87
2023-05-14T19:03:35.380Z,17.60
2023-05-14T19:08:38.996Z,19.98
2023-05-14T19:13:44.443Z,19.55
2023-05-14T19:18:47.235Z,16.88
2023-05-14T19:23:49.988Z,16.05
2023-05-14T19:28:58.036Z,19.08
2023-05-14T19:34:00.793Z,16.98
2023-05-14T19:39:03.666Z,20.70
2023-05-14T19:44:06.506Z,16.90
2023-05-14T19:49:09.157Z,17.13
2023-05-14T19:54:11.863Z,16.77
2023-05-14T19:59:14.588Z,15.52
2023-05-14T20:04:17.950Z,16.27
2023-05-14T20:09:23.785Z,15.13
2023-05-14T20:14:26.525Z,14.38
2023-05-14T20:19:29.143Z,17.13
2023-05-14T20:24:31.967Z,15.75
2023-05-14T20:29:34.592Z,19.17
2023-05-14T20:34:37.308Z,18.52
2023-05-14T20:39:40.125Z,16.02
2023-05-14T20:44:43.017Z,13.88
2023-05-14T20:49:46.518Z,15.95
2023-05-14T20:54:49.621Z,15.55
2023-05-14T20:59:52.409Z,15.73
2023-05-14T21:04:55.395Z,17.40
2023-05-14T21:09:58.196Z,20.35
2023-05-14T21:15:00.841Z,16.85
2023-05-14T21:20:03.951Z,16.52
2023-05-14T21:25:08.205Z,17.92
2023-05-14T21:30:11.399Z,14.18
2023-05-14T21:35:14.155Z,16.02
2023-05-14T21:40:16.804Z,15.45
2023-05-14T21:45:20.731Z,12.75
2023-05-14T21:50:24.371Z,17.45
2023-05-14T21:55:28.589Z,16.20
2023-05-14T22:00:31.886Z,20.70
2023-05-14T22:05:34.564Z,21.55
2023-05-14T22:10:37.103Z,19.50
2023-05-14T22:15:39.876Z,26.88
2023-05-14T22:20:43.017Z,17.65
2023-05-14T22:25:45.807Z,13.73
2023-05-14T22:30:48.289Z,20.25
2023-05-14T22:35:51.457Z,18.85
2023-05-14T22:40:54.136Z,23.40
2023-05-14T22:45:56.892Z,15.35
2023-05-14T22:50:59.415Z,21.80
2023-05-14T22:56:02.357Z,17.42
2023-05-14T23:01:24.098Z,17.25
2023-05-14T23:06:26.892Z,18.13
2023-05-14T23:11:29.749Z,16.98
2023-05-14T23:16:33.931Z,18.10
2023-05-14T23:21:36.659Z,19.40
2023-05-14T23:26:39.749Z,15.55
2023-05-14T23:31:43.649Z,17.80
2023-05-14T23:36:46.406Z,15.27
2023-05-14T23:41:49.458Z,21.42
2023-05-14T23:46:52.277Z,15.65
2023-05-14T23:51:56.828Z,18.23
2023-05-14T23:56:59.841Z,21.48
